Time;durP1;ratioP1;P1;durP2;ratioP2;P2;SDS_P1;SDS_P2;PMS_P1;PMS_P2;Temp;Humidity;BMP_temperature;BMP_pressure;BME280_temperature;BME280_humidity;BME280_pressure;Samples;Min_cycle;Max_cycle;Signal;HPM_P1;HPM_P2
2021/07/05 00:02:08;;;;;;;0.40;0.20;;;17.80;99.90;;;;;;5112129;28;20377;-85
2021/07/05 00:04:35;;;;;;;0.40;0.20;;;17.80;99.90;;;;;;5097099;28;20386;-84
2021/07/05 00:07:01;;;;;;;0.40;0.20;;;17.60;99.90;;;;;;5076641;28;20385;-84
2021/07/05 00:09:26;;;;;;;0.40;0.20;;;17.50;99.90;;;;;;5112397;28;20381;-84
2021/07/05 00:11:52;;;;;;;0.40;0.20;;;17.50;99.90;;;;;;5095661;28;20386;-85
2021/07/05 00:14:18;;;;;;;0.40;0.20;;;17.40;99.90;;;;;;5076826;28;20412;-84
2021/07/05 00:16:44;;;;;;;0.40;0.20;;;17.40;99.90;;;;;;5112175;28;20384;-84
2021/07/05 00:19:10;;;;;;;0.40;0.30;;;17.50;99.90;;;;;;5100559;28;20418;-84
2021/07/05 00:21:35;;;;;;;0.40;0.20;;;17.50;99.90;;;;;;5097233;28;20856;-85
2021/07/05 00:24:01;;;;;;;0.40;0.20;;;17.50;99.90;;;;;;5092825;28;20380;-84
2021/07/05 00:26:27;;;;;;;0.40;0.20;;;17.50;99.90;;;;;;5093332;28;20433;-84
2021/07/05 00:28:53;;;;;;;0.40;0.20;;;17.40;99.90;;;;;;5103813;28;20489;-85
2021/07/05 00:31:18;;;;;;;0.40;0.30;;;17.60;99.90;;;;;;5107568;28;20386;-83
2021/07/05 00:33:44;;;;;;;0.40;0.20;;;17.60;99.90;;;;;;5091347;28;20409;-84
2021/07/05 00:36:10;;;;;;;0.40;0.20;;;17.80;99.90;;;;;;5110264;28;20420;-84
2021/07/05 00:38:36;;;;;;;0.40;0.30;;;17.90;99.90;;;;;;5104437;28;20425;-84
2021/07/05 00:41:01;;;;;;;0.40;0.20;;;18.00;99.90;;;;;;5072987;28;20539;-84
2021/07/05 00:43:29;;;;;;;0.40;0.20;;;18.10;99.90;;;;;;5110884;28;20393;-84
2021/07/05 00:45:55;;;;;;;0.40;0.20;;;18.20;99.90;;;;;;5100762;28;20397;-84
2021/07/05 00:48:21;;;;;;;0.40;0.20;;;18.20;99.90;;;;;;5091616;28;20457;-84
2021/07/05 00:50:47;;;;;;;0.40;0.20;;;18.30;99.90;;;;;;5092361;28;20950;-84
2021/07/05 00:53:12;;;;;;;0.40;0.20;;;18.20;99.90;;;;;;5103486;28;20744;-84
2021/07/05 00:55:38;;;;;;;0.40;0.20;;;18.30;99.90;;;;;;5110064;28;20441;-84
2021/07/05 00:58:04;;;;;;;0.40;0.30;;;18.50;99.90;;;;;;5090332;28;20410;-83
2021/07/05 01:00:30;;;;;;;0.40;0.20;;;18.60;99.90;;;;;;5100097;28;20380;-84
2021/07/05 01:02:56;;;;;;;0.40;0.20;;;18.60;99.90;;;;;;5110269;28;20377;-85
2021/07/05 01:05:23;;;;;;;0.40;0.20;;;18.50;99.90;;;;;;5110805;28;20454;-85
2021/07/05 01:07:49;;;;;;;0.40;0.30;;;18.40;99.90;;;;;;5110341;28;20451;-84
2021/07/05 01:10:17;;;;;;;0.40;0.30;;;18.30;99.90;;;;;;5110187;28;20376;-84
2021/07/05 01:12:43;;;;;;;0.40;0.30;;;18.10;99.90;;;;;;5091006;28;20500;-84
2021/07/05 01:15:12;;;;;;;0.40;0.20;;;18.10;99.90;;;;;;5099046;28;20694;-85
2021/07/05 01:17:38;;;;;;;0.40;0.20;;;18.10;99.90;;;;;;5111359;28;20384;-85
2021/07/05 01:20:05;;;;;;;0.40;0.20;;;18.00;99.90;;;;;;5110119;28;20416;-84
2021/07/05 01:22:31;;;;;;;0.40;0.20;;;18.00;99.90;;;;;;5111421;28;20384;-85
2021/07/05 01:24:57;;;;;;;0.40;0.20;;;17.90;99.90;;;;;;5087443;28;20878;-85
2021/07/05 01:27:23;;;;;;;0.40;0.20;;;17.90;99.90;;;;;;5090077;28;20462;-85
2021/07/05 01:29:50;;;;;;;0.40;0.20;;;17.90;99.90;;;;;;5088590;28;20392;-84
2021/07/05 01:32:16;;;;;;;0.40;0.20;;;18.00;99.90;;;;;;5083527;28;20409;-85
2021/07/05 01:34:41;;;;;;;0.40;0.20;;;18.00;99.90;;;;;;5090674;28;20382;-83
2021/07/05 01:37:08;;;;;;;0.40;0.20;;;18.10;99.90;;;;;;5107843;28;20468;-85
2021/07/05 01:39:35;;;;;;;0.40;0.20;;;18.10;99.90;;;;;;5103801;28;20447;-85
2021/07/05 01:42:00;;;;;;;0.40;0.20;;;18.10;99.90;;;;;;5071606;28;20852;-84
2021/07/05 01:44:26;;;;;;;0.40;0.20;;;18.10;99.90;;;;;;5091108;28;20424;-84
2021/07/05 01:46:52;;;;;;;0.40;0.20;;;18.20;99.90;;;;;;5078519;28;20400;-83
2021/07/05 01:49:17;;;;;;;0.40;0.30;;;18.10;99.90;;;;;;5110438;28;20388;-83
2021/07/05 01:51:43;;;;;;;0.40;0.20;;;18.20;99.90;;;;;;5101831;28;20755;-84
2021/07/05 01:54:12;;;;;;;0.40;0.20;;;18.20;99.90;;;;;;5091082;28;20392;-84
2021/07/05 01:56:38;;;;;;;0.40;0.20;;;18.20;99.90;;;;;;5110175;28;20385;-84
2021/07/05 01:59:04;;;;;;;0.40;0.20;;;18.20;99.90;;;;;;5071582;28;20477;-84
2021/07/05 02:01:30;;;;;;;0.40;0.30;;;18.20;99.90;;;;;;5104369;28;20426;-84
2021/07/05 02:03:56;;;;;;;0.40;0.20;;;18.10;99.90;;;;;;5111751;28;20382;-83
2021/07/05 02:06:23;;;;;;;0.40;0.30;;;17.90;99.90;;;;;;5076889;28;20394;-84
2021/07/05 02:08:49;;;;;;;0.40;0.20;;;18.00;99.90;;;;;;5108793;28;20399;-84
2021/07/05 02:11:15;;;;;;;0.40;0.20;;;18.00;99.90;;;;;;5091248;28;20429;-84
2021/07/05 02:13:41;;;;;;;0.40;0.20;;;18.10;99.90;;;;;;5094000;28;20442;-83
2021/07/05 02:16:07;;;;;;;0.40;0.30;;;18.00;99.90;;;;;;5093099;28;20428;-84
2021/07/05 02:18:33;;;;;;;0.40;0.30;;;18.00;99.90;;;;;;5081547;28;20398;-83
2021/07/05 02:21:02;;;;;;;0.40;0.30;;;18.10;99.90;;;;;;5114254;28;20373;-84
2021/07/05 02:23:28;;;;;;;0.40;0.30;;;18.10;99.90;;;;;;5096333;28;20390;-83
2021/07/05 02:25:53;;;;;;;0.40;0.20;;;18.10;99.90;;;;;;5101576;28;20415;-85
2021/07/05 02:28:26;;;;;;;0.40;0.20;;;18.20;99.90;;;;;;5115098;28;20384;-83
2021/07/05 02:30:53;;;;;;;0.40;0.30;;;18.30;99.90;;;;;;5096408;28;20392;-85
2021/07/05 02:33:22;;;;;;;0.40;0.30;;;18.30;99.90;;;;;;5114522;28;20529;-85
2021/07/05 02:35:48;;;;;;;0.40;0.20;;;18.20;99.90;;;;;;5112785;28;20388;-84
2021/07/05 02:38:14;;;;;;;0.40;0.30;;;18.20;99.90;;;;;;5113966;28;20380;-84
2021/07/05 02:40:51;;;;;;;0.40;0.20;;;18.20;99.90;;;;;;5099788;28;20585;-84
2021/07/05 02:43:18;;;;;;;0.40;0.30;;;18.30;99.90;;;;;;5084603;28;20399;-84
2021/07/05 02:45:46;;;;;;;0.40;0.30;;;18.30;99.90;;;;;;5114018;28;20448;-84
2021/07/05 02:48:14;;;;;;;0.40;0.30;;;18.30;99.90;;;;;;5095619;28;20474;-84
2021/07/05 02:50:41;;;;;;;0.40;0.30;;;18.20;99.90;;;;;;5114423;28;20376;-84
2021/07/05 02:53:09;;;;;;;0.40;0.30;;;18.20;99.90;;;;;;5082072;28;20794;-83
2021/07/05 02:55:36;;;;;;;0.40;0.20;;;18.20;99.90;;;;;;5114352;28;20442;-82
2021/07/05 02:58:03;;;;;;;0.40;0.30;;;18.30;99.90;;;;;;5100480;28;20839;-84
2021/07/05 03:00:32;;;;;;;0.40;0.20;;;18.20;99.90;;;;;;5093601;28;20782;-83
2021/07/05 03:02:58;;;;;;;0.40;0.20;;;18.30;99.90;;;;;;5075129;28;20801;-84
2021/07/05 03:05:28;;;;;;;0.40;0.20;;;18.30;99.90;;;;;;5103608;28;20778;-83
2021/07/05 03:07:55;;;;;;;0.40;0.20;;;18.30;99.90;;;;;;5110323;28;20396;-84
2021/07/05 03:10:23;;;;;;;0.40;0.20;;;18.20;99.90;;;;;;5093474;28;20385;-83
2021/07/05 03:12:50;;;;;;;0.40;0.30;;;18.20;99.90;;;;;;5090009;28;20400;-83
2021/07/05 03:15:16;;;;;;;0.40;0.20;;;18.20;99.90;;;;;;5103534;28;20393;-83
2021/07/05 03:17:44;;;;;;;0.40;0.30;;;18.20;99.90;;;;;;5093860;28;20390;-84
2021/07/05 03:20:13;;;;;;;0.40;0.30;;;18.20;99.90;;;;;;5094981;28;20449;-84
2021/07/05 03:22:40;;;;;;;0.40;0.30;;;18.10;99.90;;;;;;5103165;28;20405;-86
2021/07/05 03:25:08;;;;;;;0.40;0.20;;;18.10;99.90;;;;;;5092853;28;20405;-86
2021/07/05 03:27:34;;;;;;;0.40;0.30;;;18.10;99.90;;;;;;5113438;28;20435;-85
2021/07/05 03:30:01;;;;;;;0.40;0.30;;;18.10;99.90;;;;;;5096612;28;20394;-86
2021/07/05 03:32:26;;;;;;;0.40;0.20;;;18.00;99.90;;;;;;5074876;28;20858;-85
2021/07/05 03:34:53;;;;;;;0.40;0.30;;;17.90;99.90;;;;;;5092814;28;20388;-85
2021/07/05 03:37:18;;;;;;;0.40;0.20;;;17.80;99.90;;;;;;5104940;28;20933;-86
2021/07/05 03:39:45;;;;;;;0.40;0.30;;;17.80;99.90;;;;;;5105500;28;20386;-86
2021/07/05 03:42:11;;;;;;;0.40;0.30;;;17.80;99.90;;;;;;5091545;28;20443;-86
2021/07/05 03:44:37;;;;;;;0.40;0.20;;;17.60;99.90;;;;;;5108963;28;20393;-85
2021/07/05 03:47:02;;;;;;;0.40;0.20;;;17.60;99.90;;;;;;5093071;28;20404;-86
2021/07/05 03:49:28;;;;;;;0.40;0.20;;;17.70;99.90;;;;;;5112157;28;21071;-86
2021/07/05 03:51:54;;;;;;;0.40;0.30;;;17.70;99.90;;;;;;5090067;28;20396;-84
2021/07/05 03:54:20;;;;;;;0.40;0.20;;;17.60;99.90;;;;;;5111426;28;20448;-85
2021/07/05 03:56:45;;;;;;;0.40;0.20;;;17.40;99.90;;;;;;5112986;28;20779;-85
2021/07/05 03:59:11;;;;;;;0.40;0.30;;;17.50;99.90;;;;;;5111332;28;20391;-85
2021/07/05 04:01:37;;;;;;;0.40;0.30;;;17.50;99.90;;;;;;5112312;28;20377;-85
2021/07/05 04:04:03;;;;;;;0.40;0.30;;;17.60;99.90;;;;;;5094290;28;20420;-85
2021/07/05 04:06:28;;;;;;;0.40;0.30;;;17.40;99.90;;;;;;5098058;28;20413;-86
2021/07/05 04:08:56;;;;;;;0.40;0.20;;;17.40;99.90;;;;;;5099468;28;20483;-85
2021/07/05 04:11:22;;;;;;;0.40;0.20;;;17.60;99.90;;;;;;5091499;28;20392;-85
2021/07/05 04:13:49;;;;;;;0.40;0.20;;;17.60;99.90;;;;;;5091981;28;20471;-87
2021/07/05 04:16:15;;;;;;;0.40;0.20;;;17.60;99.90;;;;;;5102659;28;20388;-85
2021/07/05 04:18:40;;;;;;;0.40;0.30;;;17.50;99.90;;;;;;5108822;28;20397;-85
2021/07/05 04:21:06;;;;;;;0.40;0.30;;;17.40;99.90;;;;;;5090720;28;20386;-85
2021/07/05 04:23:32;;;;;;;0.40;0.20;;;17.20;99.90;;;;;;5097141;28;20390;-85
2021/07/05 04:25:59;;;;;;;0.40;0.30;;;17.20;99.90;;;;;;5095641;28;20398;-84
2021/07/05 04:28:25;;;;;;;0.40;0.30;;;17.10;99.90;;;;;;5095109;28;20374;-85
2021/07/05 04:30:51;;;;;;;0.40;0.30;;;16.90;99.90;;;;;;5075023;28;20386;-85
2021/07/05 04:33:17;;;;;;;0.40;0.20;;;16.80;99.90;;;;;;5075499;28;20403;-85
2021/07/05 04:35:43;;;;;;;0.40;0.22;;;16.80;99.90;;;;;;5093177;28;20397;-85
2021/07/05 04:38:08;;;;;;;0.40;0.30;;;16.70;99.90;;;;;;5095448;28;20435;-85
2021/07/05 04:40:39;;;;;;;0.40;0.20;;;16.60;99.90;;;;;;5093644;28;20390;-85
2021/07/05 04:43:05;;;;;;;0.40;0.20;;;16.50;99.90;;;;;;5093714;28;20386;-84
2021/07/05 04:45:33;;;;;;;0.40;0.30;;;16.40;99.90;;;;;;5094201;28;20478;-85
2021/07/05 04:48:02;;;;;;;0.40;0.20;;;16.40;99.90;;;;;;5096363;28;20390;-85
2021/07/05 04:50:29;;;;;;;0.40;0.20;;;16.40;99.90;;;;;;5094899;28;20477;-84
2021/07/05 04:52:55;;;;;;;0.40;0.30;;;16.40;99.90;;;;;;5094413;28;20445;-85
2021/07/05 04:55:21;;;;;;;0.40;0.20;;;16.30;99.90;;;;;;5093628;28;20499;-85
2021/07/05 04:57:49;;;;;;;0.40;0.30;;;16.40;99.90;;;;;;5092125;28;20739;-85
2021/07/05 05:00:22;;;;;;;0.40;0.20;;;16.40;99.90;;;;;;5091684;28;20374;-84
2021/07/05 05:02:48;;;;;;;0.40;0.20;;;16.50;99.90;;;;;;5091387;28;20393;-84
2021/07/05 05:05:13;;;;;;;0.40;0.30;;;16.50;99.90;;;;;;5080081;28;20380;-85
2021/07/05 05:07:39;;;;;;;0.40;0.30;;;16.50;99.90;;;;;;5110072;28;20376;-85
2021/07/05 05:10:14;;;;;;;0.40;0.20;;;16.50;99.90;;;;;;5090414;28;20378;-84
2021/07/05 05:12:40;;;;;;;0.40;0.30;;;17.30;99.90;;;;;;5101038;28;20864;-85
2021/07/05 05:15:08;;;;;;;0.40;0.30;;;16.50;99.90;;;;;;5110843;28;20386;-85
2021/07/05 05:17:35;;;;;;;0.40;0.20;;;16.40;99.90;;;;;;5110784;28;20401;-85
2021/07/05 05:20:03;;;;;;;0.40;0.20;;;16.40;99.90;;;;;;5111479;28;20412;-84
2021/07/05 05:22:28;;;;;;;0.40;0.20;;;16.50;99.90;;;;;;5105041;28;20394;-84
2021/07/05 05:24:54;;;;;;;0.40;0.20;;;16.40;99.90;;;;;;5090826;28;20384;-84
2021/07/05 05:27:20;;;;;;;0.40;0.30;;;16.60;99.90;;;;;;5104121;28;20400;-85
2021/07/05 05:29:45;;;;;;;0.40;0.23;;;16.50;99.90;;;;;;5103323;28;20394;-84
2021/07/05 05:32:11;;;;;;;0.40;0.20;;;16.40;99.90;;;;;;5089820;28;20842;-84
2021/07/05 05:34:36;;;;;;;0.40;0.20;;;16.50;99.90;;;;;;5091053;28;20411;-84
2021/07/05 05:37:02;;;;;;;0.40;0.20;;;16.50;99.90;;;;;;5089565;28;20366;-84
2021/07/05 05:39:28;;;;;;;0.40;0.20;;;16.40;99.90;;;;;;5091706;28;20461;-84
2021/07/05 05:41:54;;;;;;;0.40;0.20;;;16.40;99.90;;;;;;5110131;28;20468;-85
2021/07/05 05:44:19;;;;;;;0.40;0.20;;;16.50;99.90;;;;;;5095963;28;20393;-85
2021/07/05 05:46:45;;;;;;;0.40;0.30;;;16.50;99.90;;;;;;5076574;28;20457;-85
2021/07/05 05:49:11;;;;;;;0.40;0.20;;;16.50;99.90;;;;;;5110472;28;20385;-85
2021/07/05 05:51:36;;;;;;;0.40;0.30;;;16.60;99.90;;;;;;5086850;28;20481;-84
2021/07/05 05:54:07;;;;;;;0.40;0.40;;;16.60;99.90;;;;;;5090591;28;20416;-84
2021/07/05 05:56:34;;;;;;;0.40;0.30;;;16.50;99.90;;;;;;5091031;28;20375;-84
2021/07/05 05:59:04;;;;;;;0.40;0.30;;;16.50;99.90;;;;;;5111405;28;20385;-85
2021/07/05 06:01:31;;;;;;;0.40;0.20;;;16.50;99.90;;;;;;5098984;28;20469;-84
2021/07/05 06:03:57;;;;;;;0.40;0.20;;;16.50;99.90;;;;;;5093650;28;20396;-85
2021/07/05 06:06:23;;;;;;;0.40;0.20;;;16.50;99.90;;;;;;5110361;28;20736;-85
2021/07/05 06:08:49;;;;;;;0.40;0.20;;;16.40;99.90;;;;;;5078496;28;20750;-86
2021/07/05 06:11:15;;;;;;;0.40;0.20;;;16.40;99.90;;;;;;5089851;28;20374;-86
2021/07/05 06:13:41;;;;;;;0.40;0.20;;;16.50;99.90;;;;;;5090430;28;20475;-82
2021/07/05 06:16:07;;;;;;;0.40;0.20;;;16.50;99.90;;;;;;5089371;28;20752;-85
2021/07/05 06:18:33;;;;;;;0.40;0.20;;;16.40;99.90;;;;;;5091149;28;20471;-81
2021/07/05 06:20:59;;;;;;;0.40;0.20;;;16.40;99.90;;;;;;5090188;28;20427;-81
2021/07/05 06:23:26;;;;;;;0.40;0.20;;;16.40;99.90;;;;;;5104649;28;20400;-81
2021/07/05 06:25:53;;;;;;;0.40;0.20;;;16.40;99.90;;;;;;5082996;28;20902;-80
2021/07/05 06:28:20;;;;;;;0.40;0.20;;;16.40;99.90;;;;;;5089557;28;20883;-80
2021/07/05 06:30:46;;;;;;;0.40;0.20;;;16.40;99.90;;;;;;5091487;28;20501;-80
2021/07/05 06:33:13;;;;;;;0.40;0.20;;;16.50;99.90;;;;;;5109237;28;20407;-80
2021/07/05 06:35:39;;;;;;;0.40;0.20;;;16.40;99.90;;;;;;5103184;28;20429;-79
2021/07/05 06:38:05;;;;;;;0.40;0.30;;;16.40;99.90;;;;;;5090414;28;20381;-85
2021/07/05 06:40:31;;;;;;;0.40;0.30;;;16.30;99.90;;;;;;5105067;28;20388;-83
2021/07/05 06:42:57;;;;;;;0.40;0.20;;;16.50;99.90;;;;;;5088434;28;20877;-84
2021/07/05 06:45:23;;;;;;;0.40;0.20;;;16.40;99.90;;;;;;5071590;28;20390;-85
2021/07/05 06:47:49;;;;;;;0.40;0.20;;;16.50;99.90;;;;;;5109232;28;20388;-85
2021/07/05 06:50:15;;;;;;;0.40;0.20;;;16.50;99.90;;;;;;5113681;28;20879;-84
2021/07/05 06:52:41;;;;;;;0.40;0.20;;;16.50;99.90;;;;;;5099573;28;20417;-84
2021/07/05 06:55:07;;;;;;;0.40;0.22;;;16.50;99.90;;;;;;5075590;28;20827;-84
2021/07/05 06:57:33;;;;;;;0.40;0.20;;;16.50;99.90;;;;;;5106025;28;20392;-84
2021/07/05 07:00:02;;;;;;;0.40;0.30;;;16.60;99.90;;;;;;5113758;28;20480;-84
2021/07/05 07:02:28;;;;;;;0.40;0.30;;;16.50;99.90;;;;;;5092824;28;21005;-85
2021/07/05 07:04:54;;;;;;;0.40;0.20;;;16.60;99.90;;;;;;5094054;28;20385;-84
2021/07/05 07:07:19;;;;;;;0.40;0.30;;;16.70;99.90;;;;;;5093385;28;20386;-84
2021/07/05 07:09:45;;;;;;;0.40;0.30;;;16.70;99.90;;;;;;5093779;28;20834;-84
2021/07/05 07:12:11;;;;;;;0.40;0.20;;;16.80;99.90;;;;;;5108629;28;20446;-83
2021/07/05 07:14:37;;;;;;;0.40;0.20;;;16.80;99.90;;;;;;5107543;28;20392;-84
2021/07/05 07:17:06;;;;;;;0.40;0.20;;;16.70;99.90;;;;;;5114359;28;20471;-84
2021/07/05 07:19:32;;;;;;;0.40;0.20;;;16.80;99.90;;;;;;5079034;28;20735;-85
2021/07/05 07:22:02;;;;;;;0.40;0.20;;;16.90;99.90;;;;;;5080853;28;20397;-84
2021/07/05 07:24:28;;;;;;;0.40;0.20;;;16.90;99.90;;;;;;5095206;28;20376;-84
2021/07/05 07:26:53;;;;;;;0.40;0.20;;;17.00;99.90;;;;;;5095060;28;20463;-84
2021/07/05 07:29:19;;;;;;;0.40;0.30;;;17.10;99.90;;;;;;5092889;28;20777;-84
2021/07/05 07:31:45;;;;;;;0.40;0.30;;;17.10;99.90;;;;;;5093603;28;20406;-84
2021/07/05 07:34:11;;;;;;;0.40;0.20;;;17.20;99.90;;;;;;5074999;28;20417;-84
2021/07/05 07:36:38;;;;;;;0.40;0.30;;;17.20;99.90;;;;;;5093274;28;20730;-84
2021/07/05 07:39:07;;;;;;;0.40;0.30;;;17.30;99.90;;;;;;5098589;28;20883;-84
2021/07/05 07:41:34;;;;;;;0.40;0.30;;;17.40;99.90;;;;;;5094780;28;20384;-84
2021/07/05 07:44:04;;;;;;;0.40;0.30;;;17.30;99.90;;;;;;5113314;28;20887;-84
2021/07/05 07:46:30;;;;;;;0.40;0.28;;;17.40;99.90;;;;;;5083380;28;20406;-84
2021/07/05 07:48:55;;;;;;;0.40;0.30;;;17.50;99.90;;;;;;5093945;28;20378;-84
2021/07/05 07:51:21;;;;;;;0.40;0.30;;;17.60;99.90;;;;;;5109465;28;20388;-84
2021/07/05 07:53:47;;;;;;;0.40;0.20;;;17.80;99.90;;;;;;5108406;28;20483;-85
2021/07/05 07:56:13;;;;;;;0.40;0.20;;;17.90;99.90;;;;;;5104385;28;20493;-83
2021/07/05 07:58:39;;;;;;;0.40;0.30;;;18.00;99.90;;;;;;5092583;28;20992;-85
2021/07/05 08:01:07;;;;;;;0.40;0.20;;;18.00;99.90;;;;;;5092113;28;20481;-85
2021/07/05 08:03:32;;;;;;;0.40;0.20;;;18.00;99.90;;;;;;5099811;28;20384;-85
2021/07/05 08:05:58;;;;;;;0.40;0.30;;;17.80;99.90;;;;;;5111184;28;20429;-85
2021/07/05 08:08:24;;;;;;;0.40;0.30;;;17.90;99.90;;;;;;5091963;28;20382;-84
2021/07/05 08:10:50;;;;;;;0.40;0.20;;;17.90;99.90;;;;;;5102244;28;20864;-84
2021/07/05 08:13:15;;;;;;;0.40;0.30;;;17.90;99.90;;;;;;5112197;28;20829;-84
2021/07/05 08:15:41;;;;;;;0.40;0.30;;;17.80;99.90;;;;;;5093432;28;20393;-85
2021/07/05 08:18:07;;;;;;;0.40;0.20;;;17.90;99.90;;;;;;5106136;28;20445;-85
2021/07/05 08:20:32;;;;;;;0.40;0.30;;;17.90;99.90;;;;;;5110988;28;20376;-84
2021/07/05 08:22:58;;;;;;;0.40;0.20;;;17.80;99.90;;;;;;5092504;28;20382;-85
2021/07/05 08:25:26;;;;;;;0.40;0.20;;;17.80;99.90;;;;;;5105581;28;20403;-84
2021/07/05 08:27:53;;;;;;;0.40;0.20;;;17.80;99.90;;;;;;5103802;28;20443;-85
2021/07/05 08:30:20;;;;;;;0.40;0.20;;;17.80;99.90;;;;;;5091575;28;20474;-84
2021/07/05 08:32:50;;;;;;;0.40;0.30;;;17.90;99.90;;;;;;5074143;28;20914;-85
2021/07/05 08:35:17;;;;;;;0.40;0.30;;;17.90;99.90;;;;;;5099390;28;20412;-83
2021/07/05 08:37:42;;;;;;;0.40;0.20;;;17.90;99.90;;;;;;5112623;28;20380;-84
2021/07/05 08:40:09;;;;;;;0.40;0.20;;;17.90;99.90;;;;;;5075442;28;20390;-85
2021/07/05 08:42:36;;;;;;;0.40;0.20;;;17.90;99.90;;;;;;5091472;28;20390;-84
2021/07/05 08:45:07;;;;;;;0.40;0.20;;;17.90;99.90;;;;;;5091663;28;20825;-85
2021/07/05 08:47:38;;;;;;;0.40;0.30;;;17.90;99.90;;;;;;5092340;28;20402;-85
2021/07/05 08:50:06;;;;;;;0.40;0.20;;;17.80;99.90;;;;;;5092072;28;20389;-85
2021/07/05 08:52:33;;;;;;;0.40;0.20;;;17.80;99.90;;;;;;5103869;28;20404;-84
2021/07/05 08:54:59;;;;;;;0.40;0.30;;;17.80;99.90;;;;;;5094018;28;20455;-83
2021/07/05 08:57:29;;;;;;;0.40;0.20;;;17.80;99.90;;;;;;5111614;28;20881;-84
2021/07/05 08:59:55;;;;;;;0.40;0.20;;;17.90;99.90;;;;;;5112302;28;20388;-85
2021/07/05 09:02:22;;;;;;;0.40;0.30;;;18.00;99.90;;;;;;5111250;28;20416;-84
2021/07/05 09:04:49;;;;;;;0.40;0.20;;;18.00;99.90;;;;;;5093018;28;20489;-84
2021/07/05 09:07:15;;;;;;;0.40;0.20;;;18.00;99.90;;;;;;5111986;28;20373;-83
2021/07/05 09:09:58;;;;;;;0.40;0.20;;;18.10;99.90;;;;;;5111548;28;20373;-85
2021/07/05 09:12:24;;;;;;;0.40;0.30;;;18.10;99.90;;;;;;5083969;28;20967;-85
2021/07/05 09:15:06;;;;;;;0.40;0.20;;;18.10;99.90;;;;;;5091684;28;20422;-86
2021/07/05 09:17:34;;;;;;;0.40;0.20;;;18.10;99.90;;;;;;5102738;28;20393;-85
2021/07/05 09:20:03;;;;;;;0.40;0.30;;;18.20;99.90;;;;;;5111256;28;20783;-82
2021/07/05 09:22:28;;;;;;;0.40;0.20;;;18.30;99.90;;;;;;5111160;28;20369;-82
2021/07/05 09:24:57;;;;;;;0.40;0.20;;;18.30;99.90;;;;;;5091407;28;20472;-83
2021/07/05 09:27:35;;;;;;;0.40;0.20;;;18.30;99.90;;;;;;5098733;28;20440;-82
2021/07/05 09:30:06;;;;;;;0.40;0.20;;;18.20;99.90;;;;;;5111489;28;20400;-84
2021/07/05 09:32:33;;;;;;;0.40;0.23;;;18.20;99.90;;;;;;5090951;28;20417;-85
2021/07/05 09:35:10;;;;;;;0.40;0.20;;;18.30;99.90;;;;;;5102281;28;20468;-84
2021/07/05 09:37:36;;;;;;;0.40;0.20;;;18.50;99.90;;;;;;5090860;28;21199;-84
2021/07/05 09:40:05;;;;;;;0.40;0.30;;;18.50;99.90;;;;;;5091544;28;20393;-85
2021/07/05 09:42:38;;;;;;;0.40;0.30;;;18.50;99.90;;;;;;5086932;28;20475;-85
2021/07/05 09:45:07;;;;;;;0.40;0.30;;;18.70;99.90;;;;;;5102163;28;20426;-88
2021/07/05 09:47:33;;;;;;;0.40;0.30;;;18.80;99.90;;;;;;5091779;28;20419;-84
2021/07/05 09:50:09;;;;;;;0.40;0.30;;;19.00;99.90;;;;;;5111567;28;20368;-85
2021/07/05 09:52:36;;;;;;;0.40;0.30;;;19.10;99.90;;;;;;5087865;28;20404;-84
2021/07/05 09:55:13;;;;;;;0.40;0.20;;;19.10;99.90;;;;;;5110746;28;20393;-81
2021/07/05 09:57:48;;;;;;;0.40;0.20;;;19.30;99.90;;;;;;5091900;28;20550;-86
2021/07/05 10:00:13;;;;;;;0.40;0.20;;;19.40;99.90;;;;;;5093248;28;20782;-84
2021/07/05 10:03:08;;;;;;;0.40;0.20;;;19.40;99.90;;;;;;5093237;28;20394;-87
2021/07/05 10:05:47;;;;;;;0.40;0.30;;;19.40;99.90;;;;;;5090240;28;20519;-84
2021/07/05 10:08:15;;;;;;;0.40;0.30;;;19.30;99.90;;;;;;5073211;28;20468;-84
2021/07/05 10:10:44;;;;;;;0.40;0.20;;;19.40;99.90;;;;;;5090187;28;20466;-80
2021/07/05 10:13:15;;;;;;;0.40;0.20;;;19.40;99.90;;;;;;5091844;28;20882;-83
2021/07/05 10:15:41;;;;;;;0.40;0.25;;;19.40;99.90;;;;;;5097786;28;20784;-86
2021/07/05 10:18:07;;;;;;;0.40;0.30;;;19.40;99.90;;;;;;5090932;28;20461;-84
2021/07/05 10:20:44;;;;;;;0.40;0.20;;;19.50;99.90;;;;;;5101941;28;20409;-83
2021/07/05 10:23:14;;;;;;;0.40;0.20;;;19.60;99.90;;;;;;5112471;28;20533;-83
2021/07/05 10:25:47;;;;;;;0.40;0.30;;;19.60;99.90;;;;;;5075508;28;20464;-84
2021/07/05 10:28:13;;;;;;;0.40;0.30;;;19.70;99.90;;;;;;5108545;28;20388;-78
2021/07/05 10:30:39;;;;;;;0.40;0.30;;;19.70;99.90;;;;;;5095463;28;20424;-85
2021/07/05 10:33:06;;;;;;;0.40;0.30;;;19.80;99.90;;;;;;5115156;28;20434;-80
2021/07/05 10:35:42;;;;;;;0.40;0.30;;;19.90;99.90;;;;;;5094480;28;20386;-84
2021/07/05 10:38:18;;;;;;;0.40;0.30;;;19.80;99.90;;;;;;5101903;28;20425;-85
2021/07/05 10:40:47;;;;;;;0.40;0.30;;;19.90;99.90;;;;;;5114312;28;20385;-85
2021/07/05 10:43:16;;;;;;;0.40;0.20;;;20.00;99.90;;;;;;5094790;28;20440;-83
2021/07/05 10:45:50;;;;;;;0.40;0.20;;;20.20;99.90;;;;;;5102182;28;20384;-84
2021/07/05 10:48:36;;;;;;;0.40;0.20;;;20.20;99.90;;;;;;5115066;28;20849;-83
2021/07/05 10:51:03;;;;;;;0.40;0.20;;;20.20;99.90;;;;;;5095180;28;20464;-84
2021/07/05 10:53:32;;;;;;;0.40;0.30;;;20.50;99.90;;;;;;5113660;28;20484;-83
2021/07/05 10:55:59;;;;;;;0.40;0.30;;;20.70;99.90;;;;;;5114453;28;20380;-80
2021/07/05 10:58:30;;;;;;;0.40;0.20;;;20.80;99.90;;;;;;5096679;28;20787;-82
2021/07/05 11:01:03;;;;;;;0.40;0.20;;;20.70;99.90;;;;;;5095062;28;20398;-84
2021/07/05 11:03:38;;;;;;;0.40;0.20;;;20.70;99.90;;;;;;5083171;28;20399;-83
2021/07/05 11:06:13;;;;;;;0.40;0.30;;;20.40;99.90;;;;;;5112515;28;20412;-80
2021/07/05 11:08:51;;;;;;;0.40;0.30;;;20.30;99.90;;;;;;5075580;28;20401;-85
2021/07/05 11:11:31;;;;;;;0.40;0.30;;;20.30;99.90;;;;;;5113446;28;20400;-77
2021/07/05 11:14:22;;;;;;;0.40;0.30;;;20.30;99.90;;;;;;5103145;28;20414;-82
2021/07/05 11:17:11;;;;;;;0.40;0.20;;;20.10;99.90;;;;;;5094951;28;20439;-85
2021/07/05 11:19:47;;;;;;;0.40;0.20;;;20.10;99.90;;;;;;5073672;28;20419;-84
2021/07/05 11:22:38;;;;;;;0.40;0.20;;;20.20;99.90;;;;;;5095733;28;20390;-84
2021/07/05 11:25:18;;;;;;;0.40;0.20;;;20.30;99.90;;;;;;5107337;28;20388;-83
2021/07/05 11:27:49;;;;;;;0.40;0.20;;;20.20;99.90;;;;;;5113383;28;20926;-83
2021/07/05 11:30:21;;;;;;;0.40;0.20;;;20.40;99.90;;;;;;5113861;28;20383;-84
2021/07/05 11:32:49;;;;;;;0.40;0.20;;;20.50;99.90;;;;;;5074936;28;20406;-85
2021/07/05 11:35:29;;;;;;;0.40;0.30;;;20.70;99.90;;;;;;5108723;28;20411;-85
2021/07/05 11:37:57;;;;;;;0.40;0.20;;;20.80;99.90;;;;;;5101813;28;20401;-84
2021/07/05 11:40:48;;;;;;;0.40;0.30;;;20.80;99.90;;;;;;5081819;28;20972;-86
2021/07/05 11:43:16;;;;;;;0.40;0.20;;;21.00;99.90;;;;;;5112959;28;20384;-84
2021/07/05 11:45:42;;;;;;;0.40;0.30;;;21.20;99.90;;;;;;5112775;28;20813;-84
2021/07/05 11:48:10;;;;;;;0.40;0.20;;;21.00;99.90;;;;;;5084708;28;20407;-85
2021/07/05 11:50:39;;;;;;;0.40;0.20;;;20.80;99.90;;;;;;5080406;28;20744;-85
2021/07/05 11:53:05;;;;;;;0.40;0.30;;;20.60;99.90;;;;;;5095535;28;20406;-86
2021/07/05 11:55:35;;;;;;;0.40;0.30;;;20.50;99.90;;;;;;5090795;28;20396;-85
2021/07/05 11:58:06;;;;;;;0.40;0.20;;;20.40;99.90;;;;;;5102563;28;20386;-81
2021/07/05 12:00:36;;;;;;;0.40;0.30;;;20.40;99.90;;;;;;5096224;28;20399;-85
2021/07/05 12:03:02;;;;;;;0.40;0.30;;;20.40;99.90;;;;;;5113498;28;20380;-85
2021/07/05 12:05:28;;;;;;;0.40;0.30;;;20.40;99.90;;;;;;5096517;28;20394;-83
2021/07/05 12:08:04;;;;;;;0.40;0.20;;;20.30;99.90;;;;;;5101800;28;20380;-86
2021/07/05 12:10:31;;;;;;;0.40;0.20;;;20.30;99.90;;;;;;5091675;28;20382;-90
2021/07/05 12:13:17;;;;;;;0.40;0.30;;;20.40;99.90;;;;;;5074894;28;20819;-86
2021/07/05 12:15:52;;;;;;;0.40;0.30;;;20.30;99.90;;;;;;5106467;28;20396;-83
2021/07/05 12:18:18;;;;;;;0.40;0.20;;;20.40;99.90;;;;;;5085713;28;20394;-81
2021/07/05 12:20:44;;;;;;;0.40;0.20;;;20.30;99.90;;;;;;5091587;28;20485;-85
2021/07/05 12:23:14;;;;;;;0.40;0.30;;;20.40;99.90;;;;;;5111379;28;20392;-85
2021/07/05 12:25:41;;;;;;;0.40;0.30;;;20.50;99.90;;;;;;5100651;28;20478;-83
2021/07/05 12:28:14;;;;;;;0.40;0.30;;;20.70;99.90;;;;;;5074447;28;20382;-86
2021/07/05 12:30:48;;;;;;;0.40;0.20;;;20.80;99.90;;;;;;5091933;28;20723;-81
2021/07/05 12:33:13;;;;;;;0.40;0.28;;;20.90;99.90;;;;;;5108022;28;20440;-86
2021/07/05 12:35:39;;;;;;;0.40;0.20;;;21.10;99.90;;;;;;5105478;28;20452;-85
2021/07/05 12:38:13;;;;;;;0.40;0.20;;;21.20;99.90;;;;;;5092402;28;20389;-86
2021/07/05 12:40:41;;;;;;;0.40;0.23;;;21.20;99.90;;;;;;5087574;28;20721;-85
2021/07/05 12:43:12;;;;;;;0.40;0.30;;;21.10;99.90;;;;;;5112178;28;20388;-84
2021/07/05 12:45:53;;;;;;;0.40;0.30;;;21.00;99.90;;;;;;5106556;28;20450;-85
2021/07/05 12:48:24;;;;;;;0.40;0.20;;;21.10;99.90;;;;;;5074328;28;20475;-86
2021/07/05 12:50:52;;;;;;;0.40;0.20;;;20.90;99.90;;;;;;5099161;28;20381;-85
2021/07/05 12:53:40;;;;;;;0.40;0.20;;;20.70;99.90;;;;;;5078216;28;20882;-86